Time;durP1;ratioP1;P1;durP2;ratioP2;P2;SDS_P1;SDS_P2;PMS_P1;PMS_P2;Temp;Humidity;BMP_temperature;BMP_pressure;BME280_temperature;BME280_humidity;BME280_pressure;Samples;Min_cycle;Max_cycle;Signal;HPM_P1;HPM_P2
2023/05/13 00:00:31;;;;;;;;;;;;;;;;;;5114398;28;20045;-74
2023/05/13 00:02:57;;;;;;;;;;;;;;;;;;5113840;28;19990;-74
2023/05/13 00:05:23;;;;;;;;;;;;;;;;;;5114391;28;20053;-76
2023/05/13 00:07:49;;;;;;;;;;;;;;;;;;5113789;28;19990;-74
2023/05/13 00:10:15;;;;;;;;;;;;;;;;;;5113767;28;19955;-76
2023/05/13 00:12:41;;;;;;;;;;;;;;;;;;5113743;28;19994;-74
2023/05/13 00:15:07;;;;;;;;;;;;;;;;;;5114245;28;20463;-76
2023/05/13 00:17:33;;;;;;;;;;;;;;;;;;5113964;28;19990;-74
2023/05/13 00:19:59;;;;;;;;;;;;;;;;;;5113650;28;19959;-75
2023/05/13 00:22:24;;;;;;;;;;;;;;;;;;5113699;28;20005;-75
2023/05/13 00:24:50;;;;;;;;;;;;;;;;;;5113890;28;20325;-75
2023/05/13 00:27:17;;;;;;;;;;;;;;;;;;5113588;28;19996;-74
2023/05/13 00:29:43;;;;;;;;;;;;;;;;;;5095113;28;19964;-75
2023/05/13 00:32:09;;;;;;;;;;;;;;;;;;5095217;28;19975;-76
2023/05/13 00:34:35;;;;;;;;;;;;;;;;;;5113761;28;19998;-75
2023/05/13 00:37:01;;;;;;;;;;;;;;;;;;5113548;28;20004;-74
2023/05/13 00:39:27;;;;;;;;;;;;;;;;;;5113281;28;20020;-75
2023/05/13 00:41:53;;;;;;;;;;;;;;;;;;5113753;28;19955;-75
2023/05/13 00:44:19;;;;;;;;;;;;;;;;;;5114898;28;20392;-74
2023/05/13 00:46:45;;;;;;;;;;;;;;;;;;5117757;28;20011;-75
2023/05/13 00:49:11;;;;;;;;;;;;;;;;;;5117433;28;19999;-75
2023/05/13 00:51:37;;;;;;;;;;;;;;;;;;5117354;28;20024;-74
2023/05/13 00:54:03;;;;;;;;;;;;;;;;;;5098719;28;20006;-76
2023/05/13 00:56:29;;;;;;;;;;;;;;;;;;5117042;28;20443;-75
2023/05/13 00:58:55;;;;;;;;;;;;;;;;;;5116980;28;20451;-74
2023/05/13 01:01:21;;;;;;;;;;;;;;;;;;5117448;28;19954;-75
2023/05/13 01:03:47;;;;;;;;;;;;;;;;;;5117127;28;19962;-76
2023/05/13 01:06:13;;;;;;;;;;;;;;;;;;5116787;28;19955;-75
2023/05/13 01:08:38;;;;;;;;;;;;;;;;;;5117292;28;20328;-76
2023/05/13 01:11:04;;;;;;;;;;;;;;;;;;5116973;28;20050;-75
2023/05/13 01:13:30;;;;;;;;;;;;;;;;;;5116705;28;20385;-75
2023/05/13 01:15:57;;;;;;;;;;;;;;;;;;5117096;28;20073;-75
2023/05/13 01:18:23;;;;;;;;;;;;;;;;;;5098013;28;19958;-75
2023/05/13 01:20:49;;;;;;;;;;;;;;;;;;5116493;28;19955;-75
2023/05/13 01:23:15;;;;;;;;;;;;;;;;;;5116491;28;19955;-74
2023/05/13 01:25:41;;;;;;;;;;;;;;;;;;5116714;28;20038;-75
2023/05/13 01:28:07;;;;;;;;;;;;;;;;;;5116638;28;19980;-76
2023/05/13 01:30:33;;;;;;;;;;;;;;;;;;5116769;28;19955;-75
2023/05/13 01:32:58;;;;;;;;;;;;;;;;;;5116264;28;20329;-76
2023/05/13 01:35:24;;;;;;;;;;;;;;;;;;5116170;28;19975;-76
2023/05/13 01:37:51;;;;;;;;;;;;;;;;;;5116492;28;19962;-74
2023/05/13 01:40:17;;;;;;;;;;;;;;;;;;5115991;28;19991;-76
2023/05/13 01:42:43;;;;;;;;;;;;;;;;;;5097811;28;19966;-74
2023/05/13 01:45:09;;;;;;;;;;;;;;;;;;5097758;28;19959;-75
2023/05/13 01:47:35;;;;;;;;;;;;;;;;;;5097713;28;20394;-74
2023/05/13 01:50:01;;;;;;;;;;;;;;;;;;5115930;28;19962;-75
2023/05/13 01:52:26;;;;;;;;;;;;;;;;;;5116464;28;19955;-75
2023/05/13 01:54:52;;;;;;;;;;;;;;;;;;5115844;28;19979;-75
2023/05/13 01:57:19;;;;;;;;;;;;;;;;;;5097525;28;19959;-74
2023/05/13 01:59:45;;;;;;;;;;;;;;;;;;5116588;28;19955;-75
2023/05/13 02:02:11;;;;;;;;;;;;;;;;;;5115664;28;19955;-75
2023/05/13 02:04:37;;;;;;;;;;;;;;;;;;5115659;28;20336;-74
2023/05/13 02:07:03;;;;;;;;;;;;;;;;;;5115578;28;19955;-74
2023/05/13 02:09:29;;;;;;;;;;;;;;;;;;5115815;28;19961;-75
2023/05/13 02:11:55;;;;;;;;;;;;;;;;;;5115495;28;20048;-74
2023/05/13 02:14:21;;;;;;;;;;;;;;;;;;5115666;28;19996;-75
2023/05/13 02:16:47;;;;;;;;;;;;;;;;;;5115692;28;19962;-75
2023/05/13 02:19:12;;;;;;;;;;;;;;;;;;5097062;28;19977;-75
2023/05/13 02:21:39;;;;;;;;;;;;;;;;;;5115289;28;19986;-75
2023/05/13 02:24:05;;;;;;;;;;;;;;;;;;5115523;28;19955;-75
2023/05/13 02:26:31;;;;;;;;;;;;;;;;;;5115186;28;19955;-75
2023/05/13 02:28:57;;;;;;;;;;;;;;;;;;5115167;28;20410;-75
2023/05/13 02:31:23;;;;;;;;;;;;;;;;;;5115030;28;19970;-74
2023/05/13 02:33:48;;;;;;;;;;;;;;;;;;5115366;28;20441;-76
2023/05/13 02:36:14;;;;;;;;;;;;;;;;;;5114989;28;20019;-74
2023/05/13 02:38:40;;;;;;;;;;;;;;;;;;5114823;28;19987;-75
2023/05/13 02:41:06;;;;;;;;;;;;;;;;;;5096446;28;20385;-75
2023/05/13 02:43:32;;;;;;;;;;;;;;;;;;5115161;28;19958;-74
2023/05/13 02:45:58;;;;;;;;;;;;;;;;;;5114877;28;20332;-74
2023/05/13 02:48:24;;;;;;;;;;;;;;;;;;5114775;28;19964;-74
2023/05/13 02:50:50;;;;;;;;;;;;;;;;;;5114773;28;20000;-74
2023/05/13 02:53:16;;;;;;;;;;;;;;;;;;5115016;28;19958;-74
2023/05/13 02:55:42;;;;;;;;;;;;;;;;;;5114583;28;20397;-75
2023/05/13 02:58:08;;;;;;;;;;;;;;;;;;5114636;28;19954;-75
2023/05/13 03:00:34;;;;;;;;;;;;;;;;;;5096839;28;20317;-74
2023/05/13 03:03:00;;;;;;;;;;;;;;;;;;5114553;28;19954;-75
2023/05/13 03:05:25;;;;;;;;;;;;;;;;;;5096265;28;19994;-75
2023/05/13 03:07:51;;;;;;;;;;;;;;;;;;5113936;28;20412;-75
2023/05/13 03:10:17;;;;;;;;;;;;;;;;;;5096216;28;19959;-75
2023/05/13 03:12:43;;;;;;;;;;;;;;;;;;5114439;28;19955;-75
2023/05/13 03:15:09;;;;;;;;;;;;;;;;;;5096077;28;20031;-75
2023/05/13 03:17:35;;;;;;;;;;;;;;;;;;5114326;28;20435;-74
2023/05/13 03:20:01;;;;;;;;;;;;;;;;;;5114873;28;19955;-76
2023/05/13 03:22:28;;;;;;;;;;;;;;;;;;5114271;28;19954;-75
2023/05/13 03:24:53;;;;;;;;;;;;;;;;;;5114516;28;19959;-76
2023/05/13 03:27:19;;;;;;;;;;;;;;;;;;5095955;28;20007;-75
2023/05/13 03:29:45;;;;;;;;;;;;;;;;;;5114237;28;19962;-74
2023/05/13 03:32:11;;;;;;;;;;;;;;;;;;5114102;28;20444;-75
2023/05/13 03:34:37;;;;;;;;;;;;;;;;;;5114063;28;20025;-76
2023/05/13 03:37:04;;;;;;;;;;;;;;;;;;5114106;28;19955;-75
2023/05/13 03:39:29;;;;;;;;;;;;;;;;;;5113971;28;20085;-74
2023/05/13 03:41:55;;;;;;;;;;;;;;;;;;5095755;28;20012;-76
2023/05/13 03:44:21;;;;;;;;;;;;;;;;;;5114005;28;20088;-75
2023/05/13 03:46:47;;;;;;;;;;;;;;;;;;5095716;28;20003;-75
2023/05/13 03:49:13;;;;;;;;;;;;;;;;;;5095665;28;20005;-75
2023/05/13 03:51:39;;;;;;;;;;;;;;;;;;5095713;28;19966;-75
2023/05/13 03:54:05;;;;;;;;;;;;;;;;;;5114141;28;19955;-75
2023/05/13 03:56:31;;;;;;;;;;;;;;;;;;5114172;28;19971;-75
2023/05/13 03:58:57;;;;;;;;;;;;;;;;;;5113830;28;19955;-75
2023/05/13 04:01:22;;;;;;;;;;;;;;;;;;5114893;28;20005;-75
2023/05/13 04:03:49;;;;;;;;;;;;;;;;;;5113829;28;19955;-75
2023/05/13 04:06:14;;;;;;;;;;;;;;;;;;5114372;28;19955;-75
2023/05/13 04:08:40;;;;;;;;;;;;;;;;;;5113758;28;20337;-75
2023/05/13 04:11:06;;;;;;;;;;;;;;;;;;5113809;28;20043;-75
2023/05/13 04:13:32;;;;;;;;;;;;;;;;;;5113758;28;19963;-74
2023/05/13 04:15:58;;;;;;;;;;;;;;;;;;5095342;28;19979;-74
2023/05/13 04:18:24;;;;;;;;;;;;;;;;;;5114001;28;19961;-74
2023/05/13 04:20:50;;;;;;;;;;;;;;;;;;5117406;28;20356;-75
2023/05/13 04:23:16;;;;;;;;;;;;;;;;;;5099317;28;19966;-76
2023/05/13 04:25:42;;;;;;;;;;;;;;;;;;5117617;28;19954;-76
2023/05/13 04:28:08;;;;;;;;;;;;;;;;;;5117607;28;19954;-74
2023/05/13 04:30:33;;;;;;;;;;;;;;;;;;5117406;28;19955;-74
2023/05/13 04:32:59;;;;;;;;;;;;;;;;;;5117755;28;19958;-75
2023/05/13 04:35:25;;;;;;;;;;;;;;;;;;5117346;28;19974;-75
2023/05/13 04:37:51;;;;;;;;;;;;;;;;;;5117909;28;19955;-75
2023/05/13 04:40:17;;;;;;;;;;;;;;;;;;5116918;28;19998;-75
2023/05/13 04:42:43;;;;;;;;;;;;;;;;;;5099001;28;20435;-75
2023/05/13 04:45:09;;;;;;;;;;;;;;;;;;5117195;28;20362;-75
2023/05/13 04:47:36;;;;;;;;;;;;;;;;;;5117181;28;19955;-75
2023/05/13 04:50:02;;;;;;;;;;;;;;;;;;5117143;28;20042;-76
2023/05/13 04:52:28;;;;;;;;;;;;;;;;;;5117085;28;20005;-75
2023/05/13 04:54:54;;;;;;;;;;;;;;;;;;5116946;28;20458;-75
2023/05/13 04:57:20;;;;;;;;;;;;;;;;;;5116974;28;19965;-76
2023/05/13 04:59:46;;;;;;;;;;;;;;;;;;5117459;28;19962;-74
2023/05/13 05:02:12;;;;;;;;;;;;;;;;;;5117733;28;20009;-75
2023/05/13 05:04:38;;;;;;;;;;;;;;;;;;5117100;28;19959;-75
2023/05/13 05:07:04;;;;;;;;;;;;;;;;;;5116789;28;19955;-75
2023/05/13 05:09:30;;;;;;;;;;;;;;;;;;5117397;28;19957;-76
2023/05/13 05:11:56;;;;;;;;;;;;;;;;;;5116668;28;19962;-76
2023/05/13 05:14:22;;;;;;;;;;;;;;;;;;5117112;28;20328;-75
2023/05/13 05:16:48;;;;;;;;;;;;;;;;;;5116852;28;19954;-75
2023/05/13 05:19:14;;;;;;;;;;;;;;;;;;5116545;28;19998;-75
2023/05/13 05:21:40;;;;;;;;;;;;;;;;;;5117105;28;20024;-76
2023/05/13 05:24:06;;;;;;;;;;;;;;;;;;5098137;28;19966;-74
2023/05/13 05:26:32;;;;;;;;;;;;;;;;;;5116390;28;19954;-74
2023/05/13 05:28:58;;;;;;;;;;;;;;;;;;5098142;28;19958;-75
2023/05/13 05:31:25;;;;;;;;;;;;;;;;;;5097390;28;19974;-74
2023/05/13 05:33:51;;;;;;;;;;;;;;;;;;5116624;28;19958;-75
2023/05/13 05:36:17;;;;;;;;;;;;;;;;;;5116165;28;19975;-74
2023/05/13 05:38:43;;;;;;;;;;;;;;;;;;5116243;28;20046;-76
2023/05/13 05:41:09;;;;;;;;;;;;;;;;;;5097566;28;20057;-75
2023/05/13 05:43:35;;;;;;;;;;;;;;;;;;5116116;28;19955;-75
2023/05/13 05:46:01;;;;;;;;;;;;;;;;;;5097779;28;19966;-75
2023/05/13 05:48:27;;;;;;;;;;;;;;;;;;5115979;28;19955;-75
2023/05/13 05:50:54;;;;;;;;;;;;;;;;;;5116251;28;19963;-75
2023/05/13 05:53:20;;;;;;;;;;;;;;;;;;5115921;28;19959;-76
2023/05/13 05:55:46;;;;;;;;;;;;;;;;;;5115780;28;19975;-77
2023/05/13 05:58:12;;;;;;;;;;;;;;;;;;5116102;28;19959;-75
2023/05/13 06:00:37;;;;;;;;;;;;;;;;;;5097977;28;20416;-75
2023/05/13 06:03:03;;;;;;;;;;;;;;;;;;5097441;28;19998;-75
2023/05/13 06:05:29;;;;;;;;;;;;;;;;;;5115669;28;20427;-75
2023/05/13 06:07:55;;;;;;;;;;;;;;;;;;5097321;28;20336;-75
2023/05/13 06:10:21;;;;;;;;;;;;;;;;;;5115556;28;19955;-75
2023/05/13 06:12:47;;;;;;;;;;;;;;;;;;5115511;28;19954;-75
2023/05/13 06:15:13;;;;;;;;;;;;;;;;;;5115975;28;20489;-74
2023/05/13 06:17:39;;;;;;;;;;;;;;;;;;5115721;28;19958;-76
2023/05/13 06:20:05;;;;;;;;;;;;;;;;;;5115417;28;20050;-74
2023/05/13 06:22:31;;;;;;;;;;;;;;;;;;5115639;28;19955;-75
2023/05/13 06:24:57;;;;;;;;;;;;;;;;;;5115305;28;19955;-74
2023/05/13 06:27:22;;;;;;;;;;;;;;;;;;5115841;28;19963;-75
2023/05/13 06:29:48;;;;;;;;;;;;;;;;;;5115199;28;19990;-75
2023/05/13 06:32:14;;;;;;;;;;;;;;;;;;5115362;28;20053;-74
2023/05/13 06:34:44;;;;;;;;;;;;;;;;;;5115048;28;19975;-76
2023/05/13 06:37:10;;;;;;;;;;;;;;;;;;5115091;28;19962;-74
2023/05/13 06:39:36;;;;;;;;;;;;;;;;;;5114700;28;19991;-75
2023/05/13 06:42:02;;;;;;;;;;;;;;;;;;5114375;28;19959;-75
2023/05/13 06:44:27;;;;;;;;;;;;;;;;;;5115189;28;20049;-76
2023/05/13 06:46:53;;;;;;;;;;;;;;;;;;5114898;28;19955;-75
2023/05/13 06:49:20;;;;;;;;;;;;;;;;;;5115384;28;20319;-74
2023/05/13 06:51:47;;;;;;;;;;;;;;;;;;5114297;28;20283;-75
2023/05/13 06:54:13;;;;;;;;;;;;;;;;;;5114630;28;20020;-75
2023/05/13 06:56:39;;;;;;;;;;;;;;;;;;5115239;28;19962;-75
2023/05/13 06:59:05;;;;;;;;;;;;;;;;;;5114614;28;20004;-75
2023/05/13 07:01:31;;;;;;;;;;;;;;;;;;5115144;28;19961;-76
2023/05/13 07:03:57;;;;;;;;;;;;;;;;;;5114848;28;19972;-76
2023/05/13 07:06:23;;;;;;;;;;;;;;;;;;5114480;28;20354;-75
2023/05/13 07:08:49;;;;;;;;;;;;;;;;;;5115056;28;19962;-74
2023/05/13 07:11:15;;;;;;;;;;;;;;;;;;5114483;28;19962;-74
2023/05/13 07:13:40;;;;;;;;;;;;;;;;;;5114378;28;19955;-74
2023/05/13 07:16:06;;;;;;;;;;;;;;;;;;5114851;28;20416;-75
2023/05/13 07:18:32;;;;;;;;;;;;;;;;;;5096059;28;19962;-76
2023/05/13 07:20:58;;;;;;;;;;;;;;;;;;5096023;28;19959;-74
2023/05/13 07:23:24;;;;;;;;;;;;;;;;;;5114299;28;19995;-74
2023/05/13 07:25:50;;;;;;;;;;;;;;;;;;5114494;28;19954;-75
2023/05/13 07:28:16;;;;;;;;;;;;;;;;;;5114223;28;19955;-75
2023/05/13 07:30:42;;;;;;;;;;;;;;;;;;5114425;28;19977;-75
2023/05/13 07:33:08;;;;;;;;;;;;;;;;;;5114145;28;19955;-76
2023/05/13 07:35:34;;;;;;;;;;;;;;;;;;5095792;28;19979;-74
2023/05/13 07:38:00;;;;;;;;;;;;;;;;;;5114081;28;20050;-74
2023/05/13 07:40:26;;;;;;;;;;;;;;;;;;5113623;28;20022;-75
2023/05/13 07:42:52;;;;;;;;;;;;;;;;;;5114601;28;19954;-75
2023/05/13 07:45:18;;;;;;;;;;;;;;;;;;5114000;28;20351;-76
2023/05/13 07:47:44;;;;;;;;;;;;;;;;;;5114561;28;20008;-75
2023/05/13 07:50:10;;;;;;;;;;;;;;;;;;5113939;28;19960;-74
2023/05/13 07:52:36;;;;;;;;;;;;;;;;;;5114539;28;19955;-75
2023/05/13 07:55:03;;;;;;;;;;;;;;;;;;5099843;28;20359;-76
2023/05/13 07:57:28;;;;;;;;;;;;;;;;;;5099886;28;19959;-75
2023/05/13 07:59:54;;;;;;;;;;;;;;;;;;5099759;28;19959;-75
2023/05/13 08:02:20;;;;;;;;;;;;;;;;;;5119193;28;19959;-74
2023/05/13 08:04:46;;;;;;;;;;;;;;;;;;5118289;28;19959;-74
2023/05/13 08:07:12;;;;;;;;;;;;;;;;;;5117991;28;20340;-75
2023/05/13 08:09:38;;;;;;;;;;;;;;;;;;5099681;28;19973;-74
2023/05/13 08:12:04;;;;;;;;;;;;;;;;;;5117807;28;20111;-74
2023/05/13 08:14:30;;;;;;;;;;;;;;;;;;5118147;28;19975;-75
2023/05/13 08:16:56;;;;;;;;;;;;;;;;;;5117767;28;19958;-74
2023/05/13 08:19:22;;;;;;;;;;;;;;;;;;5117755;28;19955;-75
2023/05/13 08:21:48;;;;;;;;;;;;;;;;;;5118031;28;19954;-76
2023/05/13 08:24:14;;;;;;;;;;;;;;;;;;5117639;28;19955;-75
2023/05/13 08:26:40;;;;;;;;;;;;;;;;;;5117894;28;20043;-75
2023/05/13 08:29:06;;;;;;;;;;;;;;;;;;5099191;28;19990;-71
2023/05/13 08:31:32;;;;;;;;;;;;;;;;;;5117608;28;20519;-73
2023/05/13 08:33:58;;;;;;;;;;;;;;;;;;5117363;28;19986;-74
2023/05/13 08:36:25;;;;;;;;;;;;;;;;;;5117587;28;19975;-71
2023/05/13 08:38:51;;;;;;;;;;;;;;;;;;5117128;28;19986;-70
2023/05/13 08:41:17;;;;;;;;;;;;;;;;;;5117713;28;20080;-70
2023/05/13 08:43:43;;;;;;;;;;;;;;;;;;5117268;28;19959;-73
2023/05/13 08:46:09;;;;;;;;;;;;;;;;;;5117482;28;19962;-73
2023/05/13 08:48:35;;;;;;;;;;;;;;;;;;5117138;28;19955;-73
2023/05/13 08:51:01;;;;;;;;;;;;;;;;;;5117103;28;20001;-73
2023/05/13 08:53:27;;;;;;;;;;;;;;;;;;5117127;28;20008;-72
2023/05/13 08:55:53;;;;;;;;;;;;;;;;;;5117317;28;19979;-72
2023/05/13 08:58:19;;;;;;;;;;;;;;;;;;5117020;28;19968;-72
2023/05/13 09:00:47;;;;;;;;;;;;;;;;;;5117325;28;20005;-72
2023/05/13 09:03:13;;;;;;;;;;;;;;;;;;5116974;28;19997;-73
2023/05/13 09:05:39;;;;;;;;;;;;;;;;;;5115893;28;20332;-72
2023/05/13 09:08:05;;;;;;;;;;;;;;;;;;5098427;28;20053;-73
2023/05/13 09:10:31;;;;;;;;;;;;;;;;;;5116118;28;20057;-71
2023/05/13 09:12:57;;;;;;;;;;;;;;;;;;5117183;28;20436;-74
2023/05/13 09:15:23;;;;;;;;;;;;;;;;;;5116861;28;19985;-74
2023/05/13 09:17:50;;;;;;;;;;;;;;;;;;5116650;28;20416;-75
2023/05/13 09:20:16;;;;;;;;;;;;;;;;;;5116668;28;19955;-72
2023/05/13 09:22:43;;;;;;;;;;;;;;;;;;5116560;28;20500;-74
2023/05/13 09:25:08;;;;;;;;;;;;;;;;;;5098213;28;19963;-72
2023/05/13 09:27:34;;;;;;;;;;;;;;;;;;5116462;28;19955;-74
2023/05/13 09:30:00;;;;;;;;;;;;;;;;;;5116687;28;20327;-73
2023/05/13 09:32:26;;;;;;;;;;;;;;;;;;5116273;28;20516;-73
2023/05/13 09:34:52;;;;;;;;;;;;;;;;;;5116312;28;20120;-73
2023/05/13 09:37:18;;;;;;;;;;;;;;;;;;5116334;28;20424;-73
2023/05/13 09:39:45;;;;;;;;;;;;;;;;;;5103773;28;20086;-73
2023/05/13 09:42:11;;;;;;;;;;;;;;;;;;5096205;28;19964;-73
2023/05/13 09:44:36;;;;;;;;;;;;;;;;;;5096067;28;19955;-72
2023/05/13 09:47:02;;;;;;;;;;;;;;;;;;5096015;28;20351;-73
2023/05/13 09:49:28;;;;;;;;;;;;;;;;;;5095664;28;20012;-73
2023/05/13 09:51:54;;;;;;;;;;;;;;;;;;5095838;28;19991;-73
2023/05/13 09:54:20;;;;;;;;;;;;;;;;;;5095507;28;19962;-73
2023/05/13 09:56:46;;;;;;;;;;;;;;;;;;5095842;28;19978;-73
2023/05/13 09:59:12;;;;;;;;;;;;;;;;;;5095465;28;19955;-72
2023/05/13 10:01:38;;;;;;;;;;;;;;;;;;5096222;28;19959;-73
2023/05/13 10:04:05;;;;;;;;;;;;;;;;;;5095469;28;20005;-73
2023/05/13 10:06:30;;;;;;;;;;;;;;;;;;5095397;28;20042;-72
2023/05/13 10:08:56;;;;;;;;;;;;;;;;;;5095278;28;19991;-73
2023/05/13 10:11:22;;;;;;;;;;;;;;;;;;5095520;28;20427;-70
2023/05/13 10:13:48;;;;;;;;;;;;;;;;;;5095417;28;20001;-69
2023/05/13 10:16:15;;;;;;;;;;;;;;;;;;5093744;28;19982;-69
2023/05/13 10:18:41;;;;;;;;;;;;;;;;;;5095639;28;20038;-72
2023/05/13 10:21:07;;;;;;;;;;;;;;;;;;5094983;28;20040;-73
2023/05/13 10:23:33;;;;;;;;;;;;;;;;;;5095013;28;19974;-71
2023/05/13 10:25:59;;;;;;;;;;;;;;;;;;5095565;28;20330;-71
2023/05/13 10:28:25;;;;;;;;;;;;;;;;;;5094877;28;20001;-71
2023/05/13 10:30:51;;;;;;;;;;;;;;;;;;5094989;28;19971;-71
2023/05/13 10:33:17;;;;;;;;;;;;;;;;;;5094838;28;20484;-70
2023/05/13 10:35:43;;;;;;;;;;;;;;;;;;5094660;28;20347;-71
2023/05/13 10:38:09;;;;;;;;;;;;;;;;;;5094768;28;20000;-71
2023/05/13 10:40:35;;;;;;;;;;;;;;;;;;5076056;28;20470;-71
2023/05/13 10:43:01;;;;;;;;;;;;;;;;;;5095204;28;19991;-71
2023/05/13 10:45:27;;;;;;;;;;;;;;;;;;5094561;28;19963;-72
2023/05/13 10:47:53;;;;;;;;;;;;;;;;;;5094848;28;19966;-71
2023/05/13 10:50:19;;;;;;;;;;;;;;;;;;5094740;28;20046;-71
2023/05/13 10:52:44;;;;;;;;;;;;;;;;;;5094450;28;20005;-71
2023/05/13 10:55:10;;;;;;;;;;;;;;;;;;5094314;28;20475;-70
2023/05/13 10:57:36;;;;;;;;;;;;;;;;;;5076072;28;19960;-71
2023/05/13 11:00:02;;;;;;;;;;;;;;;;;;5094926;28;20333;-71
2023/05/13 11:02:28;;;;;;;;;;;;;;;;;;5095094;28;20005;-71
2023/05/13 11:04:54;;;;;;;;;;;;;;;;;;5076052;28;19965;-70
2023/05/13 11:07:20;;;;;;;;;;;;;;;;;;5094209;28;19955;-71
2023/05/13 11:09:46;;;;;;;;;;;;;;;;;;5094174;28;20021;-71
2023/05/13 11:12:12;;;;;;;;;;;;;;;;;;5094177;28;20347;-71
2023/05/13 11:14:38;;;;;;;;;;;;;;;;;;5094020;28;19982;-71
2023/05/13 11:17:05;;;;;;;;;;;;;;;;;;5094661;28;20325;-71
2023/05/13 11:19:31;;;;;;;;;;;;;;;;;;5094369;28;19955;-71
2023/05/13 11:21:57;;;;;;;;;;;;;;;;;;5094017;28;19963;-71
2023/05/13 11:24:23;;;;;;;;;;;;;;;;;;5094233;28;19959;-71
2023/05/13 11:26:49;;;;;;;;;;;;;;;;;;5093904;28;19959;-70
2023/05/13 11:29:15;;;;;;;;;;;;;;;;;;5093415;28;19970;-71
2023/05/13 11:31:41;;;;;;;;;;;;;;;;;;5093913;28;19971;-71
2023/05/13 11:34:10;;;;;;;;;;;;;;;;;;5093800;28;20001;-71
2023/05/13 11:36:36;;;;;;;;;;;;;;;;;;5093770;28;19975;-71
2023/05/13 11:39:01;;;;;;;;;;;;;;;;;;5081659;28;20043;-71
2023/05/13 11:41:27;;;;;;;;;;;;;;;;;;5114608;28;19955;-71
2023/05/13 11:43:53;;;;;;;;;;;;;;;;;;5114046;28;19955;-71
2023/05/13 11:46:19;;;;;;;;;;;;;;;;;;5114073;28;20416;-71
2023/05/13 11:48:46;;;;;;;;;;;;;;;;;;5113991;28;19955;-71
2023/05/13 11:51:12;;;;;;;;;;;;;;;;;;5114334;28;19994;-70
2023/05/13 11:53:38;;;;;;;;;;;;;;;;;;5113959;28;20049;-71
2023/05/13 11:56:04;;;;;;;;;;;;;;;;;;5114450;28;20472;-71
2023/05/13 11:58:30;;;;;;;;;;;;;;;;;;5113946;28;20301;-71
2023/05/13 12:00:57;;;;;;;;;;;;;;;;;;5113968;28;19961;-71
2023/05/13 12:03:23;;;;;;;;;;;;;;;;;;5114428;28;19962;-70
2023/05/13 12:05:50;;;;;;;;;;;;;;;;;;5113863;28;20428;-70
2023/05/13 12:08:16;;;;;;;;;;;;;;;;;;5113863;28;20046;-71
2023/05/13 12:10:42;;;;;;;;;;;;;;;;;;5114358;28;20435;-71
2023/05/13 12:13:08;;;;;;;;;;;;;;;;;;5114100;28;19959;-71
2023/05/13 12:15:34;;;;;;;;;;;;;;;;;;5113695;28;20451;-71
2023/05/13 12:18:00;;;;;;;;;;;;;;;;;;5113755;28;20004;-71
2023/05/13 12:20:25;;;;;;;;;;;;;;;;;;5113998;28;20336;-71
2023/05/13 12:22:51;;;;;;;;;;;;;;;;;;5113694;28;19954;-71
2023/05/13 12:25:18;;;;;;;;;;;;;;;;;;5113958;28;19969;-71
2023/05/13 12:27:44;;;;;;;;;;;;;;;;;;5113735;28;20008;-71
2023/05/13 12:30:10;;;;;;;;;;;;;;;;;;5113644;28;19955;-71
2023/05/13 12:32:36;;;;;;;;;;;;;;;;;;5113550;28;20329;-71
2023/05/13 12:35:02;;;;;;;;;;;;;;;;;;5113562;28;19975;-71
2023/05/13 12:37:28;;;;;;;;;;;;;;;;;;5113501;28;19978;-71
2023/05/13 12:39:54;;;;;;;;;;;;;;;;;;5100441;28;20460;-71
2023/05/13 12:42:20;;;;;;;;;;;;;;;;;;5097295;28;19955;-71
2023/05/13 12:44:46;;;;;;;;;;;;;;;;;;5097209;28;20362;-71
2023/05/13 12:47:13;;;;;;;;;;;;;;;;;;5097436;28;19955;-71
2023/05/13 12:49:39;;;;;;;;;;;;;;;;;;5096826;28;20439;-71
2023/05/13 12:52:05;;;;;;;;;;;;;;;;;;5097356;28;19956;-71
2023/05/13 12:54:30;;;;;;;;;;;;;;;;;;5096700;28;19955;-71
2023/05/13 12:56:56;;;;;;;;;;;;;;;;;;5096717;28;19956;-71
2023/05/13 12:59:23;;;;;;;;;;;;;;;;;;5096992;28;19962;-70
2023/05/13 13:01:50;;;;;;;;;;;;;;;;;;5097152;28;19956;-71
2023/05/13 13:04:15;;;;;;;;;;;;;;;;;;5096909;28;19956;-71
2023/05/13 13:06:41;;;;;;;;;;;;;;;;;;5096561;28;19955;-70
2023/05/13 13:09:07;;;;;;;;;;;;;;;;;;5097048;28;20461;-71
2023/05/13 13:11:33;;;;;;;;;;;;;;;;;;5096426;28;19959;-71
2023/05/13 13:13:59;;;;;;;;;;;;;;;;;;5096385;28;19955;-71
2023/05/13 13:16:25;;;;;;;;;;;;;;;;;;5096602;28;20437;-70
2023/05/13 13:18:51;;;;;;;;;;;;;;;;;;5078171;28;19959;-71
2023/05/13 13:21:17;;;;;;;;;;;;;;;;;;5096231;28;19956;-71
2023/05/13 13:23:43;;;;;;;;;;;;;;;;;;5096197;28;20343;-71
2023/05/13 13:26:10;;;;;;;;;;;;;;;;;;5096141;28;19963;-71
2023/05/13 13:28:36;;;;;;;;;;;;;;;;;;5096639;28;19954;-71
2023/05/13 13:31:02;;;;;;;;;;;;;;;;;;5095944;28;19972;-71
2023/05/13 13:33:27;;;;;;;;;;;;;;;;;;5096561;28;19962;-71
2023/05/13 13:35:53;;;;;;;;;;;;;;;;;;5095895;28;19986;-71
2023/05/13 13:38:19;;;;;;;;;;;;;;;;;;5095748;28;19955;-70
2023/05/13 13:40:45;;;;;;;;;;;;;;;;;;5095872;28;19988;-70
2023/05/13 13:43:11;;;;;;;;;;;;;;;;;;5096120;28;20427;-71
2023/05/13 13:45:37;;;;;;;;;;;;;;;;;;5096089;28;20408;-71
2023/05/13 13:48:03;;;;;;;;;;;;;;;;;;5077646;28;20054;-71
2023/05/13 13:50:29;;;;;;;;;;;;;;;;;;5095417;28;19955;-71
2023/05/13 13:52:55;;;;;;;;;;;;;;;;;;5095819;28;19962;-71
2023/05/13 13:55:21;;;;;;;;;;;;;;;;;;5095554;28;20329;-71
2023/05/13 13:57:47;;;;;;;;;;;;;;;;;;5096129;28;20324;-71
2023/05/13 14:00:13;;;;;;;;;;;;;;;;;;5095495;28;19959;-70
2023/05/13 14:02:39;;;;;;;;;;;;;;;;;;5096284;28;19955;-71
2023/05/13 14:05:05;;;;;;;;;;;;;;;;;;5095726;28;19955;-71
2023/05/13 14:07:31;;;;;;;;;;;;;;;;;;5095667;28;20422;-71
2023/05/13 14:09:57;;;;;;;;;;;;;;;;;;5095243;28;19969;-71
2023/05/13 14:12:23;;;;;;;;;;;;;;;;;;5095822;28;20366;-71
2023/05/13 14:14:49;;;;;;;;;;;;;;;;;;5095105;28;20448;-71
2023/05/13 14:17:14;;;;;;;;;;;;;;;;;;5095161;28;19962;-71
2023/05/13 14:19:41;;;;;;;;;;;;;;;;;;5095388;28;20004;-71
2023/05/13 14:22:07;;;;;;;;;;;;;;;;;;5095352;28;19955;-71
2023/05/13 14:24:33;;;;;;;;;;;;;;;;;;5094997;28;19966;-70
2023/05/13 14:26:59;;;;;;;;;;;;;;;;;;5095260;28;19978;-71
2023/05/13 14:29:28;;;;;;;;;;;;;;;;;;5076547;28;20061;-71
2023/05/13 14:31:54;;;;;;;;;;;;;;;;;;5094882;28;20021;-70
2023/05/13 14:34:22;;;;;;;;;;;;;;;;;;5094865;28;19956;-71
2023/05/13 14:36:47;;;;;;;;;;;;;;;;;;5094972;28;20436;-71
2023/05/13 14:39:13;;;;;;;;;;;;;;;;;;5094686;28;19995;-71
2023/05/13 14:41:41;;;;;;;;;;;;;;;;;;5094696;28;20004;-71
2023/05/13 14:44:07;;;;;;;;;;;;;;;;;;5094634;28;19955;-71
2023/05/13 14:46:35;;;;;;;;;;;;;;;;;;5094900;28;20317;-72
2023/05/13 14:49:01;;;;;;;;;;;;;;;;;;5094572;28;20354;-71
2023/05/13 14:51:27;;;;;;;;;;;;;;;;;;5095081;28;20047;-71
2023/05/13 14:53:53;;;;;;;;;;;;;;;;;;5094797;28;20033;-71
2023/05/13 14:56:19;;;;;;;;;;;;;;;;;;5094422;28;20070;-71
2023/05/13 14:58:45;;;;;;;;;;;;;;;;;;5094957;28;20396;-71
2023/05/13 15:01:11;;;;;;;;;;;;;;;;;;5094662;28;20009;-71
2023/05/13 15:03:37;;;;;;;;;;;;;;;;;;5094103;28;20340;-70
2023/05/13 15:06:03;;;;;;;;;;;;;;;;;;5094273;28;20451;-71
2023/05/13 15:08:29;;;;;;;;;;;;;;;;;;5094223;28;20483;-71
2023/05/13 15:10:55;;;;;;;;;;;;;;;;;;5094732;28;20051;-71
2023/05/13 15:13:21;;;;;;;;;;;;;;;;;;5094162;28;19955;-70
2023/05/13 15:15:47;;;;;;;;;;;;;;;;;;5075877;28;20404;-71
2023/05/13 15:18:12;;;;;;;;;;;;;;;;;;5094646;28;20442;-71
2023/05/13 15:20:38;;;;;;;;;;;;;;;;;;5094299;28;20037;-71
2023/05/13 15:23:04;;;;;;;;;;;;;;;;;;5094046;28;19955;-71
2023/05/13 15:25:30;;;;;;;;;;;;;;;;;;5094317;28;20006;-71
2023/05/13 15:27:56;;;;;;;;;;;;;;;;;;5093911;28;19959;-70
2023/05/13 15:30:22;;;;;;;;;;;;;;;;;;5094359;28;19990;-71
2023/05/13 15:32:48;;;;;;;;;;;;;;;;;;5093891;28;19959;-71
2023/05/13 15:35:14;;;;;;;;;;;;;;;;;;5094385;28;19975;-71
2023/05/13 15:37:41;;;;;;;;;;;;;;;;;;5093846;28;20002;-71
2023/05/13 15:40:07;;;;;;;;;;;;;;;;;;5093670;28;19990;-70
2023/05/13 15:42:33;;;;;;;;;;;;;;;;;;5094088;28;19959;-70
2023/05/13 15:44:59;;;;;;;;;;;;;;;;;;5093747;28;20344;-71
2023/05/13 15:47:25;;;;;;;;;;;;;;;;;;5093755;28;19955;-71
2023/05/13 15:49:52;;;;;;;;;;;;;;;;;;5093660;28;19959;-71
2023/05/13 15:52:18;;;;;;;;;;;;;;;;;;5093718;28;19955;-71
2023/05/13 15:54:44;;;;;;;;;;;;;;;;;;5093529;28;20341;-71
2023/05/13 15:57:10;;;;;;;;;;;;;;;;;;5093646;28;19955;-71
2023/05/13 15:59:35;;;;;;;;;;;;;;;;;;5093611;28;19960;-71
2023/05/13 16:02:01;;;;;;;;;;;;;;;;;;5094405;28;20009;-71
2023/05/13 16:04:27;;;;;;;;;;;;;;;;;;5093566;28;20331;-70
2023/05/13 16:06:53;;;;;;;;;;;;;;;;;;5093564;28;20079;-71
2023/05/13 16:09:19;;;;;;;;;;;;;;;;;;5093794;28;19955;-71
2023/05/13 16:11:46;;;;;;;;;;;;;;;;;;5093553;28;20038;-71
2023/05/13 16:14:12;;;;;;;;;;;;;;;;;;5095022;28;19955;-70
2023/05/13 16:16:37;;;;;;;;;;;;;;;;;;5097399;28;20348;-71
2023/05/13 16:19:03;;;;;;;;;;;;;;;;;;5097740;28;19962;-71
2023/05/13 16:21:30;;;;;;;;;;;;;;;;;;5097441;28;20397;-71
2023/05/13 16:23:56;;;;;;;;;;;;;;;;;;5097396;28;20046;-70
2023/05/13 16:26:23;;;;;;;;;;;;;;;;;;5097582;28;19995;-71
2023/05/13 16:28:49;;;;;;;;;;;;;;;;;;5097639;28;19993;-70
2023/05/13 16:31:15;;;;;;;;;;;;;;;;;;5096746;28;19971;-71
2023/05/13 16:33:41;;;;;;;;;;;;;;;;;;5097183;28;20335;-71
2023/05/13 16:36:06;;;;;;;;;;;;;;;;;;5097047;28;19978;-71